Main page
METAR-TAF:

METAR-TAF

Airports :

Lake Tahoe Airport

South Lake Tahoe, California, United States

latitude: 38-53-38N, longitude: 119-59-43W, elevation: 6262 ft

Current weather observation

The report was made 1 hour and 2 minutes ago, at 11:53 UTC
Wind 8 mph from the South/Southeast
Temperature 30°F
Humidity 69%
Pressure 29.94 in. Hg
Visibility: 10 miles
Clear sky

METAR: KTVL 271153Z AUTO 16007KT 10SM CLR M01/M06 A2994 RMK AO2 SLP129 60001 70003 T10111056 10017 21017 53008

Time: 04:55 (12:55 UTC)

Forecast

The report was made 1 hour and 35 minutes ago, at 11:20 UTC
Forecast valid from 27 at 12 UTC to 28 at 12 UTC
Wind 7 mph from the South
Visibility: 6 miles
Few clouds at a height of 20000 ft
From 27 at 1800 UTC
Wind 6 mph from variable directions
Visibility: 6 miles
Few clouds at a height of 20000 ft

TAF: KTVL 271120Z 2712/2812 18006KT P6SM FEW200 FM271800 VRB05KT P6SM FEW200

Weather observations and forecasts of more than 4000 airports (METAR and TAF reports).

The available stations are represented by yellow and red dots on the map.

Hover mouse over dot to see the name of the station.

Then click to see weather observations and forecasts.

To change the map : click on the green buttons with a black cross to zoom in, on the green button with a dash to zoom out, or on the green arrows for adjacent maps.


METAR-TAF: